sensor_id;sensor_type;location;lat;lon;timestamp;P1;durP1;ratioP1;P2;durP2;ratioP2
43986;SDS011;29650;47.378;8.300;2023-04-24T00:02:01;0.43;;;0.20;;
43986;SDS011;29650;47.378;8.300;2023-04-24T00:04:29;0.20;;;0.13;;
43986;SDS011;29650;47.378;8.300;2023-04-24T00:06:58;0.25;;;0.25;;
43986;SDS011;29650;47.378;8.300;2023-04-24T00:09:25;0.55;;;0.40;;
43986;SDS011;29650;47.378;8.300;2023-04-24T00:11:52;0.80;;;0.10;;
43986;SDS011;29650;47.378;8.300;2023-04-24T00:14:19;0.20;;;0.20;;
43986;SDS011;29650;47.378;8.300;2023-04-24T00:16:46;1.38;;;0.10;;
43986;SDS011;29650;47.378;8.300;2023-04-24T00:19:13;0.22;;;0.15;;
43986;SDS011;29650;47.378;8.300;2023-04-24T00:21:40;0.20;;;0.10;;
43986;SDS011;29650;47.378;8.300;2023-04-24T00:24:09;0.15;;;0.15;;
43986;SDS011;29650;47.378;8.300;2023-04-24T00:26:36;0.10;;;0.10;;
43986;SDS011;29650;47.378;8.300;2023-04-24T00:29:02;0.10;;;0.10;;
43986;SDS011;29650;47.378;8.300;2023-04-24T00:31:29;0.30;;;0.30;;
43986;SDS011;29650;47.378;8.300;2023-04-24T00:33:57;0.50;;;0.25;;
43986;SDS011;29650;47.378;8.300;2023-04-24T00:36:24;0.10;;;0.10;;
43986;SDS011;29650;47.378;8.300;2023-04-24T00:38:52;0.15;;;0.15;;
43986;SDS011;29650;47.378;8.300;2023-04-24T00:41:20;0.65;;;0.30;;
43986;SDS011;29650;47.378;8.300;2023-04-24T00:43:47;0.10;;;0.08;;
43986;SDS011;29650;47.378;8.300;2023-04-24T00:46:14;0.38;;;0.10;;
43986;SDS011;29650;47.378;8.300;2023-04-24T00:48:42;0.10;;;0.10;;
43986;SDS011;29650;47.378;8.300;2023-04-24T00:51:10;0.10;;;0.10;;
43986;SDS011;29650;47.378;8.300;2023-04-24T00:53:37;0.08;;;0.08;;
43986;SDS011;29650;47.378;8.300;2023-04-24T00:56:04;0.40;;;0.10;;
43986;SDS011;29650;47.378;8.300;2023-04-24T00:58:33;0.20;;;0.10;;
43986;SDS011;29650;47.378;8.300;2023-04-24T01:01:00;0.08;;;0.08;;
43986;SDS011;29650;47.378;8.300;2023-04-24T01:03:32;1.70;;;0.20;;
43986;SDS011;29650;47.378;8.300;2023-04-24T01:06:02;0.00;;;0.00;;
43986;SDS011;29650;47.378;8.300;2023-04-24T01:08:29;0.10;;;0.10;;
43986;SDS011;29650;47.378;8.300;2023-04-24T01:10:57;1.10;;;0.40;;
43986;SDS011;29650;47.378;8.300;2023-04-24T01:13:24;1.38;;;0.10;;
43986;SDS011;29650;47.378;8.300;2023-04-24T01:15:52;0.10;;;0.10;;
43986;SDS011;29650;47.378;8.300;2023-04-24T01:18:19;0.05;;;0.05;;
43986;SDS011;29650;47.378;8.300;2023-04-24T01:20:47;1.25;;;0.17;;
43986;SDS011;29650;47.378;8.300;2023-04-24T01:23:17;0.10;;;0.10;;
43986;SDS011;29650;47.378;8.300;2023-04-24T01:25:44;0.00;;;0.00;;
43986;SDS011;29650;47.378;8.300;2023-04-24T01:28:12;1.95;;;0.20;;
43986;SDS011;29650;47.378;8.300;2023-04-24T01:30:40;0.00;;;0.00;;
43986;SDS011;29650;47.378;8.300;2023-04-24T01:33:07;1.55;;;0.10;;
43986;SDS011;29650;47.378;8.300;2023-04-24T01:35:35;0.30;;;0.17;;
43986;SDS011;29650;47.378;8.300;2023-04-24T01:38:02;0.10;;;0.10;;
43986;SDS011;29650;47.378;8.300;2023-04-24T01:40:30;0.40;;;0.13;;
43986;SDS011;29650;47.378;8.300;2023-04-24T01:42:58;0.10;;;0.10;;
43986;SDS011;29650;47.378;8.300;2023-04-24T01:45:25;4.75;;;0.10;;
43986;SDS011;29650;47.378;8.300;2023-04-24T01:47:52;0.22;;;0.17;;
43986;SDS011;29650;47.378;8.300;2023-04-24T01:50:19;0.10;;;0.10;;
43986;SDS011;29650;47.378;8.300;2023-04-24T01:52:46;0.00;;;0.00;;
43986;SDS011;29650;47.378;8.300;2023-04-24T01:55:13;0.00;;;0.00;;
43986;SDS011;29650;47.378;8.300;2023-04-24T01:57:41;0.28;;;0.20;;
43986;SDS011;29650;47.378;8.300;2023-04-24T02:00:08;0.22;;;0.10;;
43986;SDS011;29650;47.378;8.300;2023-04-24T02:02:37;0.10;;;0.10;;
43986;SDS011;29650;47.378;8.300;2023-04-24T02:05:05;0.10;;;0.10;;
43986;SDS011;29650;47.378;8.300;2023-04-24T02:07:33;0.80;;;0.32;;
43986;SDS011;29650;47.378;8.300;2023-04-24T02:10:00;0.10;;;0.10;;
43986;SDS011;29650;47.378;8.300;2023-04-24T02:12:27;0.10;;;0.10;;
43986;SDS011;29650;47.378;8.300;2023-04-24T02:14:55;0.10;;;0.00;;
43986;SDS011;29650;47.378;8.300;2023-04-24T02:17:22;2.35;;;0.20;;
43986;SDS011;29650;47.378;8.300;2023-04-24T02:19:49;0.10;;;0.10;;
43986;SDS011;29650;47.378;8.300;2023-04-24T02:22:16;0.17;;;0.13;;
43986;SDS011;29650;47.378;8.300;2023-04-24T02:24:43;0.40;;;0.05;;
43986;SDS011;29650;47.378;8.300;2023-04-24T02:27:10;0.38;;;0.20;;
43986;SDS011;29650;47.378;8.300;2023-04-24T02:29:37;0.10;;;0.10;;
43986;SDS011;29650;47.378;8.300;2023-04-24T02:32:05;0.17;;;0.00;;
43986;SDS011;29650;47.378;8.300;2023-04-24T02:34:36;0.10;;;0.10;;
43986;SDS011;29650;47.378;8.300;2023-04-24T02:37:03;2.05;;;0.17;;
43986;SDS011;29650;47.378;8.300;2023-04-24T02:39:30;1.30;;;0.17;;
43986;SDS011;29650;47.378;8.300;2023-04-24T02:41:57;1.10;;;0.20;;
43986;SDS011;29650;47.378;8.300;2023-04-24T02:44:24;0.82;;;0.17;;
43986;SDS011;29650;47.378;8.300;2023-04-24T02:46:51;0.95;;;0.20;;
43986;SDS011;29650;47.378;8.300;2023-04-24T02:49:22;0.00;;;0.00;;
43986;SDS011;29650;47.378;8.300;2023-04-24T02:51:49;0.10;;;0.10;;
43986;SDS011;29650;47.378;8.300;2023-04-24T02:54:16;0.10;;;0.10;;
43986;SDS011;29650;47.378;8.300;2023-04-24T02:56:43;0.10;;;0.10;;
43986;SDS011;29650;47.378;8.300;2023-04-24T02:59:09;0.32;;;0.17;;
43986;SDS011;29650;47.378;8.300;2023-04-24T03:01:36;0.77;;;0.10;;
43986;SDS011;29650;47.378;8.300;2023-04-24T03:04:03;0.10;;;0.10;;
43986;SDS011;29650;47.378;8.300;2023-04-24T03:06:32;0.00;;;0.00;;
43986;SDS011;29650;47.378;8.300;2023-04-24T03:09:00;0.10;;;0.10;;
43986;SDS011;29650;47.378;8.300;2023-04-24T03:11:28;0.50;;;0.30;;
43986;SDS011;29650;47.378;8.300;2023-04-24T03:13:55;0.22;;;0.10;;
43986;SDS011;29650;47.378;8.300;2023-04-24T03:16:22;0.30;;;0.20;;
43986;SDS011;29650;47.378;8.300;2023-04-24T03:18:49;0.10;;;0.10;;
43986;SDS011;29650;47.378;8.300;2023-04-24T03:21:16;0.00;;;0.00;;
43986;SDS011;29650;47.378;8.300;2023-04-24T03:23:44;0.43;;;0.10;;
43986;SDS011;29650;47.378;8.300;2023-04-24T03:26:11;0.63;;;0.30;;
43986;SDS011;29650;47.378;8.300;2023-04-24T03:28:38;0.05;;;0.05;;
43986;SDS011;29650;47.378;8.300;2023-04-24T03:31:05;0.47;;;0.17;;
43986;SDS011;29650;47.378;8.300;2023-04-24T03:33:32;1.50;;;0.10;;
43986;SDS011;29650;47.378;8.300;2023-04-24T03:35:59;0.15;;;0.10;;
43986;SDS011;29650;47.378;8.300;2023-04-24T03:38:26;0.30;;;0.20;;
43986;SDS011;29650;47.378;8.300;2023-04-24T03:40:54;0.10;;;0.10;;
43986;SDS011;29650;47.378;8.300;2023-04-24T03:43:21;0.08;;;0.08;;
43986;SDS011;29650;47.378;8.300;2023-04-24T03:45:48;0.08;;;0.08;;
43986;SDS011;29650;47.378;8.300;2023-04-24T03:48:15;0.15;;;0.10;;
43986;SDS011;29650;47.378;8.300;2023-04-24T03:50:42;0.32;;;0.20;;
43986;SDS011;29650;47.378;8.300;2023-04-24T03:53:09;0.10;;;0.10;;
43986;SDS011;29650;47.378;8.300;2023-04-24T03:55:36;0.08;;;0.08;;
43986;SDS011;29650;47.378;8.300;2023-04-24T03:58:04;0.82;;;0.13;;
43986;SDS011;29650;47.378;8.300;2023-04-24T04:00:31;0.10;;;0.10;;
43986;SDS011;29650;47.378;8.300;2023-04-24T04:02:58;0.20;;;0.20;;
43986;SDS011;29650;47.378;8.300;2023-04-24T04:05:25;0.40;;;0.00;;
43986;SDS011;29650;47.378;8.300;2023-04-24T04:07:52;0.13;;;0.13;;
43986;SDS011;29650;47.378;8.300;2023-04-24T04:10:19;0.30;;;0.30;;
43986;SDS011;29650;47.378;8.300;2023-04-24T04:12:46;0.28;;;0.28;;
43986;SDS011;29650;47.378;8.300;2023-04-24T04:15:14;0.10;;;0.10;;
43986;SDS011;29650;47.378;8.300;2023-04-24T04:17:41;0.53;;;0.17;;
43986;SDS011;29650;47.378;8.300;2023-04-24T04:20:08;1.15;;;0.40;;
43986;SDS011;29650;47.378;8.300;2023-04-24T04:22:36;0.10;;;0.10;;
43986;SDS011;29650;47.378;8.300;2023-04-24T04:25:04;0.22;;;0.20;;
43986;SDS011;29650;47.378;8.300;2023-04-24T04:27:31;0.03;;;0.03;;
43986;SDS011;29650;47.378;8.300;2023-04-24T04:29:59;0.10;;;0.10;;
43986;SDS011;29650;47.378;8.300;2023-04-24T04:32:31;0.00;;;0.00;;
43986;SDS011;29650;47.378;8.300;2023-04-24T04:34:59;0.22;;;0.13;;
43986;SDS011;29650;47.378;8.300;2023-04-24T04:37:28;0.08;;;0.08;;
43986;SDS011;29650;47.378;8.300;2023-04-24T04:39:55;0.10;;;0.10;;
43986;SDS011;29650;47.378;8.300;2023-04-24T04:42:23;0.17;;;0.15;;
43986;SDS011;29650;47.378;8.300;2023-04-24T04:44:50;0.82;;;0.10;;
43986;SDS011;29650;47.378;8.300;2023-04-24T04:47:17;0.17;;;0.17;;
43986;SDS011;29650;47.378;8.300;2023-04-24T04:49:46;0.15;;;0.10;;
43986;SDS011;29650;47.378;8.300;2023-04-24T04:52:13;0.60;;;0.20;;
43986;SDS011;29650;47.378;8.300;2023-04-24T04:54:41;0.30;;;0.30;;
43986;SDS011;29650;47.378;8.300;2023-04-24T04:57:08;0.15;;;0.15;;
43986;SDS011;29650;47.378;8.300;2023-04-24T04:59:36;1.38;;;0.22;;
43986;SDS011;29650;47.378;8.300;2023-04-24T05:02:03;0.32;;;0.32;;
43986;SDS011;29650;47.378;8.300;2023-04-24T05:04:30;0.75;;;0.40;;
43986;SDS011;29650;47.378;8.300;2023-04-24T05:06:58;0.40;;;0.40;;
43986;SDS011;29650;47.378;8.300;2023-04-24T05:09:25;0.38;;;0.38;;
43986;SDS011;29650;47.378;8.300;2023-04-24T05:11:54;0.28;;;0.28;;
43986;SDS011;29650;47.378;8.300;2023-04-24T05:14:21;0.38;;;0.38;;
43986;SDS011;29650;47.378;8.300;2023-04-24T05:16:48;0.60;;;0.40;;
43986;SDS011;29650;47.378;8.300;2023-04-24T05:19:15;0.65;;;0.47;;
43986;SDS011;29650;47.378;8.300;2023-04-24T05:21:42;0.20;;;0.20;;
43986;SDS011;29650;47.378;8.300;2023-04-24T05:24:11;0.25;;;0.25;;
43986;SDS011;29650;47.378;8.300;2023-04-24T05:26:38;0.22;;;0.22;;
43986;SDS011;29650;47.378;8.300;2023-04-24T05:29:05;0.25;;;0.25;;
43986;SDS011;29650;47.378;8.300;2023-04-24T05:31:32;0.47;;;0.32;;
43986;SDS011;29650;47.378;8.300;2023-04-24T05:33:59;1.60;;;0.30;;
43986;SDS011;29650;47.378;8.300;2023-04-24T05:36:26;0.20;;;0.20;;
43986;SDS011;29650;47.378;8.300;2023-04-24T05:38:53;0.20;;;0.20;;
43986;SDS011;29650;47.378;8.300;2023-04-24T05:41:22;0.25;;;0.20;;
43986;SDS011;29650;47.378;8.300;2023-04-24T05:43:48;0.30;;;0.28;;
43986;SDS011;29650;47.378;8.300;2023-04-24T05:46:16;0.30;;;0.30;;
43986;SDS011;29650;47.378;8.300;2023-04-24T05:48:43;0.20;;;0.20;;
43986;SDS011;29650;47.378;8.300;2023-04-24T05:51:09;0.68;;;0.30;;
43986;SDS011;29650;47.378;8.300;2023-04-24T05:53:37;0.32;;;0.32;;
43986;SDS011;29650;47.378;8.300;2023-04-24T05:56:04;0.20;;;0.20;;
43986;SDS011;29650;47.378;8.300;2023-04-24T05:58:33;0.40;;;0.40;;
43986;SDS011;29650;47.378;8.300;2023-04-24T06:01:00;0.30;;;0.20;;
43986;SDS011;29650;47.378;8.300;2023-04-24T06:03:28;0.20;;;0.17;;
43986;SDS011;29650;47.378;8.300;2023-04-24T06:05:55;0.90;;;0.20;;
43986;SDS011;29650;47.378;8.300;2023-04-24T06:08:22;1.20;;;0.40;;
43986;SDS011;29650;47.378;8.300;2023-04-24T06:10:48;0.63;;;0.15;;
43986;SDS011;29650;47.378;8.300;2023-04-24T06:13:15;0.30;;;0.30;;
43986;SDS011;29650;47.378;8.300;2023-04-24T06:15:44;0.43;;;0.43;;
43986;SDS011;29650;47.378;8.300;2023-04-24T06:18:11;0.20;;;0.20;;
43986;SDS011;29650;47.378;8.300;2023-04-24T06:20:38;0.30;;;0.30;;
43986;SDS011;29650;47.378;8.300;2023-04-24T06:23:05;0.20;;;0.20;;
43986;SDS011;29650;47.378;8.300;2023-04-24T06:25:32;0.40;;;0.38;;
43986;SDS011;29650;47.378;8.300;2023-04-24T06:27:59;0.43;;;0.30;;
43986;SDS011;29650;47.378;8.300;2023-04-24T06:30:26;0.70;;;0.40;;
43986;SDS011;29650;47.378;8.300;2023-04-24T06:32:55;0.30;;;0.30;;
43986;SDS011;29650;47.378;8.300;2023-04-24T06:35:22;0.70;;;0.32;;
43986;SDS011;29650;47.378;8.300;2023-04-24T06:37:49;1.10;;;0.40;;
43986;SDS011;29650;47.378;8.300;2023-04-24T06:40:17;2.03;;;0.52;;
43986;SDS011;29650;47.378;8.300;2023-04-24T06:42:44;0.50;;;0.40;;
43986;SDS011;29650;47.378;8.300;2023-04-24T06:45:11;0.50;;;0.40;;
43986;SDS011;29650;47.378;8.300;2023-04-24T06:47:38;3.13;;;0.30;;
43986;SDS011;29650;47.378;8.300;2023-04-24T06:50:07;0.35;;;0.22;;
43986;SDS011;29650;47.378;8.300;2023-04-24T06:55:01;1.48;;;0.40;;
43986;SDS011;29650;47.378;8.300;2023-04-24T06:57:29;2.45;;;0.45;;
43986;SDS011;29650;47.378;8.300;2023-04-24T06:59:56;0.55;;;0.40;;
43986;SDS011;29650;47.378;8.300;2023-04-24T07:02:23;0.40;;;0.40;;
43986;SDS011;29650;47.378;8.300;2023-04-24T07:04:50;1.65;;;0.43;;
43986;SDS011;29650;47.378;8.300;2023-04-24T07:07:19;0.82;;;0.52;;
43986;SDS011;29650;47.378;8.300;2023-04-24T07:09:46;0.90;;;0.40;;
43986;SDS011;29650;47.378;8.300;2023-04-24T07:12:13;1.25;;;0.70;;
43986;SDS011;29650;47.378;8.300;2023-04-24T07:14:42;0.47;;;0.47;;
43986;SDS011;29650;47.378;8.300;2023-04-24T07:17:09;0.50;;;0.50;;
43986;SDS011;29650;47.378;8.300;2023-04-24T07:19:38;2.30;;;0.35;;
43986;SDS011;29650;47.378;8.300;2023-04-24T07:22:05;1.45;;;0.65;;
43986;SDS011;29650;47.378;8.300;2023-04-24T07:24:33;1.48;;;0.50;;
43986;SDS011;29650;47.378;8.300;2023-04-24T07:27:00;0.63;;;0.60;;
43986;SDS011;29650;47.378;8.300;2023-04-24T07:29:27;2.15;;;0.70;;
43986;SDS011;29650;47.378;8.300;2023-04-24T07:31:54;0.52;;;0.52;;
43986;SDS011;29650;47.378;8.300;2023-04-24T07:34:21;0.52;;;0.52;;
43986;SDS011;29650;47.378;8.300;2023-04-24T07:36:48;2.15;;;0.68;;
43986;SDS011;29650;47.378;8.300;2023-04-24T07:39:15;0.50;;;0.50;;
43986;SDS011;29650;47.378;8.300;2023-04-24T07:41:43;2.58;;;0.60;;
43986;SDS011;29650;47.378;8.300;2023-04-24T07:44:10;1.52;;;0.93;;
43986;SDS011;29650;47.378;8.300;2023-04-24T07:46:37;3.08;;;0.80;;
43986;SDS011;29650;47.378;8.300;2023-04-24T07:49:04;3.72;;;0.70;;
43986;SDS011;29650;47.378;8.300;2023-04-24T07:51:31;2.08;;;1.00;;
43986;SDS011;29650;47.378;8.300;2023-04-24T07:54:03;1.63;;;0.70;;
43986;SDS011;29650;47.378;8.300;2023-04-24T07:56:30;1.58;;;0.70;;
43986;SDS011;29650;47.378;8.300;2023-04-24T07:58:59;0.95;;;0.80;;
43986;SDS011;29650;47.378;8.300;2023-04-24T08:01:27;0.95;;;0.68;;
43986;SDS011;29650;47.378;8.300;2023-04-24T08:03:54;0.75;;;0.63;;
43986;SDS011;29650;47.378;8.300;2023-04-24T08:06:21;4.38;;;0.85;;
43986;SDS011;29650;47.378;8.300;2023-04-24T08:08:48;1.63;;;1.00;;
43986;SDS011;29650;47.378;8.300;2023-04-24T08:11:16;0.77;;;0.77;;
43986;SDS011;29650;47.378;8.300;2023-04-24T08:13:43;1.00;;;0.68;;
43986;SDS011;29650;47.378;8.300;2023-04-24T08:16:11;2.22;;;0.90;;
43986;SDS011;29650;47.378;8.300;2023-04-24T08:18:38;2.30;;;0.98;;
43986;SDS011;29650;47.378;8.300;2023-04-24T08:21:05;1.75;;;1.05;;
43986;SDS011;29650;47.378;8.300;2023-04-24T08:23:32;3.28;;;1.42;;
43986;SDS011;29650;47.378;8.300;2023-04-24T08:25:59;3.03;;;0.98;;
43986;SDS011;29650;47.378;8.300;2023-04-24T08:28:26;3.20;;;1.33;;
43986;SDS011;29650;47.378;8.300;2023-04-24T08:30:53;2.92;;;1.13;;
43986;SDS011;29650;47.378;8.300;2023-04-24T08:33:22;3.35;;;0.98;;
43986;SDS011;29650;47.378;8.300;2023-04-24T08:35:49;4.28;;;1.30;;
43986;SDS011;29650;47.378;8.300;2023-04-24T08:38:16;3.15;;;1.33;;
43986;SDS011;29650;47.378;8.300;2023-04-24T08:40:43;1.42;;;1.10;;
43986;SDS011;29650;47.378;8.300;2023-04-24T08:43:11;1.88;;;1.50;;
43986;SDS011;29650;47.378;8.300;2023-04-24T08:45:39;3.60;;;1.17;;
43986;SDS011;29650;47.378;8.300;2023-04-24T08:48:06;4.10;;;1.48;;
43986;SDS011;29650;47.378;8.300;2023-04-24T08:50:36;4.32;;;1.15;;
43986;SDS011;29650;47.378;8.300;2023-04-24T08:53:06;3.20;;;1.33;;
43986;SDS011;29650;47.378;8.300;2023-04-24T08:55:34;3.60;;;1.30;;
43986;SDS011;29650;47.378;8.300;2023-04-24T08:58:02;1.20;;;1.10;;
43986;SDS011;29650;47.378;8.300;2023-04-24T09:00:29;5.93;;;1.30;;
43986;SDS011;29650;47.378;8.300;2023-04-24T09:02:57;2.47;;;1.15;;
43986;SDS011;29650;47.378;8.300;2023-04-24T09:05:26;4.70;;;1.58;;
43986;SDS011;29650;47.378;8.300;2023-04-24T09:07:55;2.15;;;0.70;;
43986;SDS011;29650;47.378;8.300;2023-04-24T09:10:24;1.63;;;0.90;;
43986;SDS011;29650;47.378;8.300;2023-04-24T09:12:51;4.95;;;1.20;;
43986;SDS011;29650;47.378;8.300;2023-04-24T09:15:19;4.07;;;1.30;;
43986;SDS011;29650;47.378;8.300;2023-04-24T09:17:46;3.67;;;1.10;;
43986;SDS011;29650;47.378;8.300;2023-04-24T09:20:13;2.17;;;0.77;;
43986;SDS011;29650;47.378;8.300;2023-04-24T09:22:41;2.80;;;1.95;;
43986;SDS011;29650;47.378;8.300;2023-04-24T09:25:10;1.98;;;1.00;;
43986;SDS011;29650;47.378;8.300;2023-04-24T09:27:41;4.13;;;1.30;;
43986;SDS011;29650;47.378;8.300;2023-04-24T09:30:10;4.70;;;1.00;;
43986;SDS011;29650;47.378;8.300;2023-04-24T09:32:37;2.22;;;1.10;;
43986;SDS011;29650;47.378;8.300;2023-04-24T09:35:05;1.35;;;1.00;;
43986;SDS011;29650;47.378;8.300;2023-04-24T09:37:37;2.50;;;0.80;;
43986;SDS011;29650;47.378;8.300;2023-04-24T09:40:12;3.55;;;1.05;;
43986;SDS011;29650;47.378;8.300;2023-04-24T09:42:43;0.57;;;0.57;;
43986;SDS011;29650;47.378;8.300;2023-04-24T09:45:11;1.67;;;1.20;;
43986;SDS011;29650;47.378;8.300;2023-04-24T09:47:38;3.42;;;1.35;;
43986;SDS011;29650;47.378;8.300;2023-04-24T09:50:09;1.10;;;0.65;;
43986;SDS011;29650;47.378;8.300;2023-04-24T09:52:39;0.82;;;0.52;;
43986;SDS011;29650;47.378;8.300;2023-04-24T09:55:13;4.25;;;1.00;;
43986;SDS011;29650;47.378;8.300;2023-04-24T09:57:49;1.33;;;0.70;;
43986;SDS011;29650;47.378;8.300;2023-04-24T10:00:23;2.15;;;0.65;;
43986;SDS011;29650;47.378;8.300;2023-04-24T10:02:55;1.25;;;0.75;;
43986;SDS011;29650;47.378;8.300;2023-04-24T10:05:23;1.17;;;0.77;;
43986;SDS011;29650;47.378;8.300;2023-04-24T10:07:51;0.67;;;0.67;;
43986;SDS011;29650;47.378;8.300;2023-04-24T10:10:23;2.80;;;1.55;;
43986;SDS011;29650;47.378;8.300;2023-04-24T10:12:50;2.50;;;1.08;;
43986;SDS011;29650;47.378;8.300;2023-04-24T10:15:18;1.45;;;1.00;;
43986;SDS011;29650;47.378;8.300;2023-04-24T10:17:46;1.48;;;0.90;;
43986;SDS011;29650;47.378;8.300;2023-04-24T10:20:17;2.00;;;0.88;;
43986;SDS011;29650;47.378;8.300;2023-04-24T10:22:45;5.65;;;1.45;;
43986;SDS011;29650;47.378;8.300;2023-04-24T10:25:16;1.60;;;0.90;;
43986;SDS011;29650;47.378;8.300;2023-04-24T10:27:47;0.60;;;0.52;;
43986;SDS011;29650;47.378;8.300;2023-04-24T10:30:14;5.07;;;0.73;;
43986;SDS011;29650;47.378;8.300;2023-04-24T10:32:42;3.45;;;1.10;;
43986;SDS011;29650;47.378;8.300;2023-04-24T10:35:09;1.67;;;0.98;;
43986;SDS011;29650;47.378;8.300;2023-04-24T10:37:38;3.55;;;1.33;;
43986;SDS011;29650;47.378;8.300;2023-04-24T10:40:09;1.67;;;0.90;;
43986;SDS011;29650;47.378;8.300;2023-04-24T10:42:39;1.80;;;1.25;;
43986;SDS011;29650;47.378;8.300;2023-04-24T10:45:17;2.35;;;1.00;;
43986;SDS011;29650;47.378;8.300;2023-04-24T10:47:52;0.50;;;0.40;;
43986;SDS011;29650;47.378;8.300;2023-04-24T10:50:23;2.97;;;1.00;;
43986;SDS011;29650;47.378;8.300;2023-04-24T10:52:51;3.25;;;1.00;;
43986;SDS011;29650;47.378;8.300;2023-04-24T10:58:08;2.05;;;0.57;;
43986;SDS011;29650;47.378;8.300;2023-04-24T11:00:37;1.27;;;0.75;;
43986;SDS011;29650;47.378;8.300;2023-04-24T11:03:05;0.90;;;0.80;;
43986;SDS011;29650;47.378;8.300;2023-04-24T11:05:49;1.85;;;0.70;;
43986;SDS011;29650;47.378;8.300;2023-04-24T11:08:22;1.33;;;0.82;;
43986;SDS011;29650;47.378;8.300;2023-04-24T11:10:55;2.25;;;1.15;;
43986;SDS011;29650;47.378;8.300;2023-04-24T11:13:27;0.77;;;0.73;;
43986;SDS011;29650;47.378;8.300;2023-04-24T11:16:16;6.65;;;0.90;;
43986;SDS011;29650;47.378;8.300;2023-04-24T11:18:50;2.28;;;1.15;;
43986;SDS011;29650;47.378;8.300;2023-04-24T11:21:19;4.70;;;1.17;;
43986;SDS011;29650;47.378;8.300;2023-04-24T11:23:48;1.45;;;1.17;;
43986;SDS011;29650;47.378;8.300;2023-04-24T11:26:18;2.50;;;1.35;;
43986;SDS011;29650;47.378;8.300;2023-04-24T11:28:48;4.97;;;1.10;;
43986;SDS011;29650;47.378;8.300;2023-04-24T11:31:36;1.67;;;1.33;;
43986;SDS011;29650;47.378;8.300;2023-04-24T11:34:08;4.40;;;1.20;;
43986;SDS011;29650;47.378;8.300;2023-04-24T11:36:35;3.38;;;1.05;;
43986;SDS011;29650;47.378;8.300;2023-04-24T11:39:03;2.60;;;0.93;;
43986;SDS011;29650;47.378;8.300;2023-04-24T11:41:30;1.88;;;0.90;;
43986;SDS011;29650;47.378;8.300;2023-04-24T11:43:57;4.10;;;1.70;;
43986;SDS011;29650;47.378;8.300;2023-04-24T11:46:27;2.03;;;1.15;;
43986;SDS011;29650;47.378;8.300;2023-04-24T11:48:57;2.55;;;1.35;;
43986;SDS011;29650;47.378;8.300;2023-04-24T11:51:25;2.72;;;0.85;;
43986;SDS011;29650;47.378;8.300;2023-04-24T11:53:53;4.78;;;1.38;;
43986;SDS011;29650;47.378;8.300;2023-04-24T11:56:21;3.85;;;0.98;;
43986;SDS011;29650;47.378;8.300;2023-04-24T11:58:48;6.00;;;1.35;;
43986;SDS011;29650;47.378;8.300;2023-04-24T12:03:46;1.33;;;1.15;;
43986;SDS011;29650;47.378;8.300;2023-04-24T12:06:17;0.98;;;0.80;;
43986;SDS011;29650;47.378;8.300;2023-04-24T12:08:47;3.40;;;1.10;;
43986;SDS011;29650;47.378;8.300;2023-04-24T12:11:15;0.93;;;0.63;;
43986;SDS011;29650;47.378;8.300;2023-04-24T12:13:44;1.05;;;0.70;;
43986;SDS011;29650;47.378;8.300;2023-04-24T12:16:11;1.63;;;0.85;;
43986;SDS011;29650;47.378;8.300;2023-04-24T12:18:42;1.67;;;0.65;;
43986;SDS011;29650;47.378;8.300;2023-04-24T12:21:18;0.82;;;0.70;;
43986;SDS011;29650;47.378;8.300;2023-04-24T12:23:46;0.98;;;0.73;;
43986;SDS011;29650;47.378;8.300;2023-04-24T12:26:16;3.65;;;1.00;;
43986;SDS011;29650;47.378;8.300;2023-04-24T12:28:45;1.73;;;0.75;;
43986;SDS011;29650;47.378;8.300;2023-04-24T12:33:40;1.75;;;1.02;;
43986;SDS011;29650;47.378;8.300;2023-04-24T12:36:09;0.77;;;0.70;;
43986;SDS011;29650;47.378;8.300;2023-04-24T12:38:38;2.38;;;0.80;;
43986;SDS011;29650;47.378;8.300;2023-04-24T12:41:10;4.57;;;1.02;;
43986;SDS011;29650;47.378;8.300;2023-04-24T12:43:38;3.30;;;0.67;;
43986;SDS011;29650;47.378;8.300;2023-04-24T12:46:04;0.85;;;0.75;;
43986;SDS011;29650;47.378;8.300;2023-04-24T12:48:31;1.65;;;0.98;;
43986;SDS011;29650;47.378;8.300;2023-04-24T12:50:58;3.08;;;1.00;;
43986;SDS011;29650;47.378;8.300;2023-04-24T12:53:27;1.00;;;0.90;;
43986;SDS011;29650;47.378;8.300;2023-04-24T12:55:57;1.98;;;0.80;;
43986;SDS011;29650;47.378;8.300;2023-04-24T12:58:24;1.83;;;1.08;;
43986;SDS011;29650;47.378;8.300;2023-04-24T13:00:51;2.13;;;0.90;;
43986;SDS011;29650;47.378;8.300;2023-04-24T13:03:18;1.23;;;0.90;;
43986;SDS011;29650;47.378;8.300;2023-04-24T13:05:47;3.78;;;0.90;;
43986;SDS011;29650;47.378;8.300;2023-04-24T13:08:14;1.42;;;0.70;;
43986;SDS011;29650;47.378;8.300;2023-04-24T13:10:41;0.70;;;0.70;;
43986;SDS011;29650;47.378;8.300;2023-04-24T13:13:10;5.55;;;1.38;;
43986;SDS011;29650;47.378;8.300;2023-04-24T13:15:36;1.52;;;1.10;;
43986;SDS011;29650;47.378;8.300;2023-04-24T13:18:03;2.80;;;1.38;;
43986;SDS011;29650;47.378;8.300;2023-04-24T13:20:30;1.33;;;1.10;;
43986;SDS011;29650;47.378;8.300;2023-04-24T13:22:57;1.65;;;1.02;;
43986;SDS011;29650;47.378;8.300;2023-04-24T13:25:25;4.55;;;1.27;;
43986;SDS011;29650;47.378;8.300;2023-04-24T13:27:52;1.77;;;1.13;;
43986;SDS011;29650;47.378;8.300;2023-04-24T13:30:20;3.20;;;1.42;;
43986;SDS011;29650;47.378;8.300;2023-04-24T13:32:47;5.40;;;1.27;;
43986;SDS011;29650;47.378;8.300;2023-04-24T13:35:14;3.10;;;1.23;;
43986;SDS011;29650;47.378;8.300;2023-04-24T13:37:41;3.42;;;1.17;;
43986;SDS011;29650;47.378;8.300;2023-04-24T13:40:08;5.00;;;1.10;;
43986;SDS011;29650;47.378;8.300;2023-04-24T13:42:36;5.10;;;1.38;;
43986;SDS011;29650;47.378;8.300;2023-04-24T13:45:03;3.25;;;1.40;;
43986;SDS011;29650;47.378;8.300;2023-04-24T13:47:32;4.65;;;1.30;;
43986;SDS011;29650;47.378;8.300;2023-04-24T13:49:59;4.38;;;1.42;;
43986;SDS011;29650;47.378;8.300;2023-04-24T13:52:25;2.55;;;1.10;;
43986;SDS011;29650;47.378;8.300;2023-04-24T13:54:52;0.70;;;0.57;;
43986;SDS011;29650;47.378;8.300;2023-04-24T13:57:20;2.97;;;1.13;;
43986;SDS011;29650;47.378;8.300;2023-04-24T13:59:47;2.20;;;0.95;;
43986;SDS011;29650;47.378;8.300;2023-04-24T14:02:14;2.42;;;1.05;;
43986;SDS011;29650;47.378;8.300;2023-04-24T14:04:42;3.00;;;1.20;;
43986;SDS011;29650;47.378;8.300;2023-04-24T14:07:09;1.27;;;1.00;;
43986;SDS011;29650;47.378;8.300;2023-04-24T14:09:36;3.70;;;1.65;;
43986;SDS011;29650;47.378;8.300;2023-04-24T14:12:03;1.10;;;1.00;;
43986;SDS011;29650;47.378;8.300;2023-04-24T14:14:32;1.48;;;1.10;;
43986;SDS011;29650;47.378;8.300;2023-04-24T14:16:59;1.27;;;1.05;;
43986;SDS011;29650;47.378;8.300;2023-04-24T14:19:25;0.90;;;0.80;;
43986;SDS011;29650;47.378;8.300;2023-04-24T14:21:54;3.90;;;1.85;;
43986;SDS011;29650;47.378;8.300;2023-04-24T14:24:23;3.65;;;1.50;;
43986;SDS011;29650;47.378;8.300;2023-04-24T14:26:50;1.50;;;1.08;;
43986;SDS011;29650;47.378;8.300;2023-04-24T14:29:17;1.98;;;1.20;;
43986;SDS011;29650;47.378;8.300;2023-04-24T14:31:44;1.40;;;0.77;;
43986;SDS011;29650;47.378;8.300;2023-04-24T14:34:12;3.22;;;1.15;;
43986;SDS011;29650;47.378;8.300;2023-04-24T14:36:40;1.23;;;0.88;;
43986;SDS011;29650;47.378;8.300;2023-04-24T14:39:09;1.20;;;1.10;;
43986;SDS011;29650;47.378;8.300;2023-04-24T14:44:04;1.00;;;0.80;;
43986;SDS011;29650;47.378;8.300;2023-04-24T14:46:31;1.90;;;1.13;;
43986;SDS011;29650;47.378;8.300;2023-04-24T14:48:58;1.05;;;0.88;;
43986;SDS011;29650;47.378;8.300;2023-04-24T14:51:25;1.45;;;1.00;;
43986;SDS011;29650;47.378;8.300;2023-04-24T14:53:52;2.75;;;0.90;;
43986;SDS011;29650;47.378;8.300;2023-04-24T14:56:20;3.53;;;0.90;;
43986;SDS011;29650;47.378;8.300;2023-04-24T14:58:47;1.30;;;0.85;;
43986;SDS011;29650;47.378;8.300;2023-04-24T15:01:14;2.58;;;0.70;;
43986;SDS011;29650;47.378;8.300;2023-04-24T15:03:42;0.73;;;0.70;;
43986;SDS011;29650;47.378;8.300;2023-04-24T15:06:10;2.28;;;0.70;;